sensor_id;sensor_type;location;lat;lon;timestamp;temperature;humidity
15355;DHT22;7777;52.254;9.618;2022-08-02T00:01:52;15.50;99.90
15355;DHT22;7777;52.254;9.618;2022-08-02T00:04:18;15.40;99.90
15355;DHT22;7777;52.254;9.618;2022-08-02T00:06:44;15.40;99.90
15355;DHT22;7777;52.254;9.618;2022-08-02T00:09:10;15.30;99.90
15355;DHT22;7777;52.254;9.618;2022-08-02T00:11:36;15.30;99.90
15355;DHT22;7777;52.254;9.618;2022-08-02T00:14:02;15.30;99.90
15355;DHT22;7777;52.254;9.618;2022-08-02T00:16:29;15.20;99.90
15355;DHT22;7777;52.254;9.618;2022-08-02T00:18:54;15.20;99.90
15355;DHT22;7777;52.254;9.618;2022-08-02T00:21:20;15.10;99.90
15355;DHT22;7777;52.254;9.618;2022-08-02T00:23:46;15.10;99.90
15355;DHT22;7777;52.254;9.618;2022-08-02T00:26:12;15.10;99.90
15355;DHT22;7777;52.254;9.618;2022-08-02T00:28:37;15.10;99.90
15355;DHT22;7777;52.254;9.618;2022-08-02T00:31:03;15.10;99.90
15355;DHT22;7777;52.254;9.618;2022-08-02T00:33:29;15.10;99.90
15355;DHT22;7777;52.254;9.618;2022-08-02T00:35:55;15.20;99.90
15355;DHT22;7777;52.254;9.618;2022-08-02T00:38:20;15.20;99.90
15355;DHT22;7777;52.254;9.618;2022-08-02T00:40:48;15.20;99.90
15355;DHT22;7777;52.254;9.618;2022-08-02T00:43:16;15.10;99.90
15355;DHT22;7777;52.254;9.618;2022-08-02T00:45:42;15.00;99.90
15355;DHT22;7777;52.254;9.618;2022-08-02T00:48:10;15.10;99.90
15355;DHT22;7777;52.254;9.618;2022-08-02T00:50:38;15.10;99.90
15355;DHT22;7777;52.254;9.618;2022-08-02T00:53:04;15.10;99.90
15355;DHT22;7777;52.254;9.618;2022-08-02T00:55:34;15.10;99.90
15355;DHT22;7777;52.254;9.618;2022-08-02T00:58:00;15.10;99.90
15355;DHT22;7777;52.254;9.618;2022-08-02T01:00:26;15.10;99.90
15355;DHT22;7777;52.254;9.618;2022-08-02T01:02:52;15.10;99.90
15355;DHT22;7777;52.254;9.618;2022-08-02T01:05:18;15.00;99.90
15355;DHT22;7777;52.254;9.618;2022-08-02T01:07:44;15.00;99.90
15355;DHT22;7777;52.254;9.618;2022-08-02T01:10:10;15.00;99.90
15355;DHT22;7777;52.254;9.618;2022-08-02T01:12:35;15.00;99.90
15355;DHT22;7777;52.254;9.618;2022-08-02T01:15:05;14.90;99.90
15355;DHT22;7777;52.254;9.618;2022-08-02T01:18:07;14.90;99.90
15355;DHT22;7777;52.254;9.618;2022-08-02T01:26:49;14.90;99.90
15355;DHT22;7777;52.254;9.618;2022-08-02T01:32:09;14.80;99.90
15355;DHT22;7777;52.254;9.618;2022-08-02T01:34:58;14.80;99.90
15355;DHT22;7777;52.254;9.618;2022-08-02T01:37:55;14.80;99.90
15355;DHT22;7777;52.254;9.618;2022-08-02T01:40:28;14.80;99.90
15355;DHT22;7777;52.254;9.618;2022-08-02T01:42:56;14.80;99.90
15355;DHT22;7777;52.254;9.618;2022-08-02T01:45:29;14.70;99.90
15355;DHT22;7777;52.254;9.618;2022-08-02T01:47:55;14.70;99.90
15355;DHT22;7777;52.254;9.618;2022-08-02T01:50:25;14.70;99.90
15355;DHT22;7777;52.254;9.618;2022-08-02T01:52:56;14.70;99.90
15355;DHT22;7777;52.254;9.618;2022-08-02T01:55:25;14.70;99.90
15355;DHT22;7777;52.254;9.618;2022-08-02T01:57:57;14.70;99.90
15355;DHT22;7777;52.254;9.618;2022-08-02T02:00:27;14.60;99.90
15355;DHT22;7777;52.254;9.618;2022-08-02T02:02:56;14.60;99.90
15355;DHT22;7777;52.254;9.618;2022-08-02T02:05:26;14.60;99.90
15355;DHT22;7777;52.254;9.618;2022-08-02T02:07:56;14.50;99.90
15355;DHT22;7777;52.254;9.618;2022-08-02T02:10:27;14.50;99.90
15355;DHT22;7777;52.254;9.618;2022-08-02T02:12:56;14.50;99.90
15355;DHT22;7777;52.254;9.618;2022-08-02T02:15:24;14.50;99.90
15355;DHT22;7777;52.254;9.618;2022-08-02T02:17:52;14.50;99.90
15355;DHT22;7777;52.254;9.618;2022-08-02T02:20:19;14.50;99.90
15355;DHT22;7777;52.254;9.618;2022-08-02T02:22:46;14.40;99.90
15355;DHT22;7777;52.254;9.618;2022-08-02T02:25:14;14.40;99.90
15355;DHT22;7777;52.254;9.618;2022-08-02T02:27:54;14.40;99.90
15355;DHT22;7777;52.254;9.618;2022-08-02T02:30:25;14.50;99.90
15355;DHT22;7777;52.254;9.618;2022-08-02T02:32:57;14.40;99.90
15355;DHT22;7777;52.254;9.618;2022-08-02T02:35:28;14.40;99.90
15355;DHT22;7777;52.254;9.618;2022-08-02T02:37:55;14.30;99.90
15355;DHT22;7777;52.254;9.618;2022-08-02T02:40:27;14.30;99.90
15355;DHT22;7777;52.254;9.618;2022-08-02T02:42:54;14.30;99.90
15355;DHT22;7777;52.254;9.618;2022-08-02T02:45:21;14.30;99.90
15355;DHT22;7777;52.254;9.618;2022-08-02T02:47:47;14.30;99.90
15355;DHT22;7777;52.254;9.618;2022-08-02T02:50:15;14.30;99.90
15355;DHT22;7777;52.254;9.618;2022-08-02T02:52:42;14.40;99.90
15355;DHT22;7777;52.254;9.618;2022-08-02T02:55:09;14.40;99.90
15355;DHT22;7777;52.254;9.618;2022-08-02T02:57:36;14.30;99.90
15355;DHT22;7777;52.254;9.618;2022-08-02T03:00:12;14.30;99.90
15355;DHT22;7777;52.254;9.618;2022-08-02T03:02:41;14.30;99.90
15355;DHT22;7777;52.254;9.618;2022-08-02T03:05:09;14.30;99.90
15355;DHT22;7777;52.254;9.618;2022-08-02T03:07:36;14.30;99.90
15355;DHT22;7777;52.254;9.618;2022-08-02T03:10:04;14.30;99.90
15355;DHT22;7777;52.254;9.618;2022-08-02T03:12:32;14.30;99.90
15355;DHT22;7777;52.254;9.618;2022-08-02T03:15:02;14.30;99.90
15355;DHT22;7777;52.254;9.618;2022-08-02T03:17:37;14.30;99.90
15355;DHT22;7777;52.254;9.618;2022-08-02T03:20:09;14.20;99.90
15355;DHT22;7777;52.254;9.618;2022-08-02T03:22:37;14.10;99.90
15355;DHT22;7777;52.254;9.618;2022-08-02T03:25:03;14.00;99.90
15355;DHT22;7777;52.254;9.618;2022-08-02T03:27:30;14.10;99.90
15355;DHT22;7777;52.254;9.618;2022-08-02T03:29:56;14.10;99.90
15355;DHT22;7777;52.254;9.618;2022-08-02T03:32:21;14.10;99.90
15355;DHT22;7777;52.254;9.618;2022-08-02T03:34:47;14.10;99.90
15355;DHT22;7777;52.254;9.618;2022-08-02T03:37:14;14.10;99.90
15355;DHT22;7777;52.254;9.618;2022-08-02T03:39:40;14.00;99.90
15355;DHT22;7777;52.254;9.618;2022-08-02T03:42:07;14.00;99.90
15355;DHT22;7777;52.254;9.618;2022-08-02T03:44:33;14.00;99.90
15355;DHT22;7777;52.254;9.618;2022-08-02T03:47:02;13.90;99.90
15355;DHT22;7777;52.254;9.618;2022-08-02T03:49:28;13.90;99.90
15355;DHT22;7777;52.254;9.618;2022-08-02T03:51:56;13.90;99.90
15355;DHT22;7777;52.254;9.618;2022-08-02T03:54:23;13.90;99.90
15355;DHT22;7777;52.254;9.618;2022-08-02T03:56:51;13.80;99.90
15355;DHT22;7777;52.254;9.618;2022-08-02T03:59:17;13.90;99.90
15355;DHT22;7777;52.254;9.618;2022-08-02T04:01:43;13.90;99.90
15355;DHT22;7777;52.254;9.618;2022-08-02T04:04:09;13.90;99.90
15355;DHT22;7777;52.254;9.618;2022-08-02T04:06:35;13.90;99.90
15355;DHT22;7777;52.254;9.618;2022-08-02T04:09:01;13.80;99.90
15355;DHT22;7777;52.254;9.618;2022-08-02T04:11:26;13.80;99.90
15355;DHT22;7777;52.254;9.618;2022-08-02T04:13:55;13.80;99.90
15355;DHT22;7777;52.254;9.618;2022-08-02T04:16:33;13.80;99.90
15355;DHT22;7777;52.254;9.618;2022-08-02T04:19:06;13.70;99.90
15355;DHT22;7777;52.254;9.618;2022-08-02T04:21:38;13.80;99.90
15355;DHT22;7777;52.254;9.618;2022-08-02T04:24:07;13.80;99.90
15355;DHT22;7777;52.254;9.618;2022-08-02T04:26:35;13.70;99.90
15355;DHT22;7777;52.254;9.618;2022-08-02T04:29:02;13.80;99.90
15355;DHT22;7777;52.254;9.618;2022-08-02T04:31:29;13.70;99.90
15355;DHT22;7777;52.254;9.618;2022-08-02T04:33:54;13.80;99.90
15355;DHT22;7777;52.254;9.618;2022-08-02T04:36:21;13.80;99.90
15355;DHT22;7777;52.254;9.618;2022-08-02T04:38:48;13.70;99.90
15355;DHT22;7777;52.254;9.618;2022-08-02T04:41:14;13.80;99.90
15355;DHT22;7777;52.254;9.618;2022-08-02T04:43:40;13.80;99.90
15355;DHT22;7777;52.254;9.618;2022-08-02T04:46:06;13.80;99.90
15355;DHT22;7777;52.254;9.618;2022-08-02T04:48:32;13.80;99.90
15355;DHT22;7777;52.254;9.618;2022-08-02T04:50:58;13.80;99.90
15355;DHT22;7777;52.254;9.618;2022-08-02T04:53:24;13.90;99.90
15355;DHT22;7777;52.254;9.618;2022-08-02T04:55:50;13.90;99.90
15355;DHT22;7777;52.254;9.618;2022-08-02T04:58:16;13.90;99.90
15355;DHT22;7777;52.254;9.618;2022-08-02T05:00:42;13.90;99.90
15355;DHT22;7777;52.254;9.618;2022-08-02T05:03:08;13.90;99.90
15355;DHT22;7777;52.254;9.618;2022-08-02T05:05:33;14.00;99.90
15355;DHT22;7777;52.254;9.618;2022-08-02T05:07:59;14.10;99.90
15355;DHT22;7777;52.254;9.618;2022-08-02T05:10:25;14.10;99.90
15355;DHT22;7777;52.254;9.618;2022-08-02T05:12:51;14.10;99.90
15355;DHT22;7777;52.254;9.618;2022-08-02T05:15:17;14.20;99.90
15355;DHT22;7777;52.254;9.618;2022-08-02T05:17:44;14.30;99.90
15355;DHT22;7777;52.254;9.618;2022-08-02T05:20:11;14.30;99.90
15355;DHT22;7777;52.254;9.618;2022-08-02T05:22:38;14.40;99.90
15355;DHT22;7777;52.254;9.618;2022-08-02T05:25:05;14.40;99.90
15355;DHT22;7777;52.254;9.618;2022-08-02T05:27:31;14.50;99.90
15355;DHT22;7777;52.254;9.618;2022-08-02T05:29:58;14.50;99.90
15355;DHT22;7777;52.254;9.618;2022-08-02T05:32:24;14.60;99.90
15355;DHT22;7777;52.254;9.618;2022-08-02T05:34:50;14.70;99.90
15355;DHT22;7777;52.254;9.618;2022-08-02T05:37:17;14.80;99.90
15355;DHT22;7777;52.254;9.618;2022-08-02T05:39:42;14.80;99.90
15355;DHT22;7777;52.254;9.618;2022-08-02T05:42:09;14.90;99.90
15355;DHT22;7777;52.254;9.618;2022-08-02T05:44:35;15.00;99.90
15355;DHT22;7777;52.254;9.618;2022-08-02T05:47:01;15.00;99.90
15355;DHT22;7777;52.254;9.618;2022-08-02T05:49:27;15.10;99.90
15355;DHT22;7777;52.254;9.618;2022-08-02T05:52:03;15.20;99.90
15355;DHT22;7777;52.254;9.618;2022-08-02T06:00:13;15.30;99.90
15355;DHT22;7777;52.254;9.618;2022-08-02T06:05:20;15.50;99.90
15355;DHT22;7777;52.254;9.618;2022-08-02T06:07:48;15.50;99.90
15355;DHT22;7777;52.254;9.618;2022-08-02T06:10:15;15.60;99.90
15355;DHT22;7777;52.254;9.618;2022-08-02T06:12:49;15.70;99.90
15355;DHT22;7777;52.254;9.618;2022-08-02T06:15:27;15.80;99.90
15355;DHT22;7777;52.254;9.618;2022-08-02T06:17:53;15.80;99.90
15355;DHT22;7777;52.254;9.618;2022-08-02T06:20:20;15.90;99.90
15355;DHT22;7777;52.254;9.618;2022-08-02T06:22:47;16.00;99.90
15355;DHT22;7777;52.254;9.618;2022-08-02T06:25:13;16.00;99.90
15355;DHT22;7777;52.254;9.618;2022-08-02T06:27:40;16.10;99.90
15355;DHT22;7777;52.254;9.618;2022-08-02T06:30:07;16.20;99.90
15355;DHT22;7777;52.254;9.618;2022-08-02T06:32:35;16.20;99.90
15355;DHT22;7777;52.254;9.618;2022-08-02T06:35:04;16.30;99.90
15355;DHT22;7777;52.254;9.618;2022-08-02T06:37:52;16.40;99.90
15355;DHT22;7777;52.254;9.618;2022-08-02T06:43:12;16.50;99.90
15355;DHT22;7777;52.254;9.618;2022-08-02T06:45:49;16.60;99.90
15355;DHT22;7777;52.254;9.618;2022-08-02T06:48:15;16.70;99.90
15355;DHT22;7777;52.254;9.618;2022-08-02T06:50:41;16.70;99.90
15355;DHT22;7777;52.254;9.618;2022-08-02T06:53:09;16.90;99.90
15355;DHT22;7777;52.254;9.618;2022-08-02T06:55:35;16.90;99.90
15355;DHT22;7777;52.254;9.618;2022-08-02T06:58:01;17.10;99.90
15355;DHT22;7777;52.254;9.618;2022-08-02T07:00:28;17.20;99.90
15355;DHT22;7777;52.254;9.618;2022-08-02T07:02:55;17.30;99.90
15355;DHT22;7777;52.254;9.618;2022-08-02T07:05:22;17.40;99.90
15355;DHT22;7777;52.254;9.618;2022-08-02T07:07:47;17.50;99.90
15355;DHT22;7777;52.254;9.618;2022-08-02T07:10:14;17.60;99.90
15355;DHT22;7777;52.254;9.618;2022-08-02T07:12:40;17.70;99.90
15355;DHT22;7777;52.254;9.618;2022-08-02T07:15:07;17.90;99.90
15355;DHT22;7777;52.254;9.618;2022-08-02T07:17:34;18.00;99.90
15355;DHT22;7777;52.254;9.618;2022-08-02T07:20:01;18.10;99.90
15355;DHT22;7777;52.254;9.618;2022-08-02T07:22:27;18.20;99.90
15355;DHT22;7777;52.254;9.618;2022-08-02T07:24:55;18.30;99.90
15355;DHT22;7777;52.254;9.618;2022-08-02T07:27:22;18.40;99.90
15355;DHT22;7777;52.254;9.618;2022-08-02T07:29:48;18.50;99.90
15355;DHT22;7777;52.254;9.618;2022-08-02T07:32:19;18.60;99.90
15355;DHT22;7777;52.254;9.618;2022-08-02T07:34:47;18.80;99.90
15355;DHT22;7777;52.254;9.618;2022-08-02T07:37:14;18.80;99.90
15355;DHT22;7777;52.254;9.618;2022-08-02T07:39:39;19.00;99.90
15355;DHT22;7777;52.254;9.618;2022-08-02T07:42:05;19.00;99.90
15355;DHT22;7777;52.254;9.618;2022-08-02T07:44:31;19.10;99.90
15355;DHT22;7777;52.254;9.618;2022-08-02T07:47:02;19.20;99.90
15355;DHT22;7777;52.254;9.618;2022-08-02T07:49:29;19.30;99.90
15355;DHT22;7777;52.254;9.618;2022-08-02T07:51:55;19.40;99.90
15355;DHT22;7777;52.254;9.618;2022-08-02T07:54:22;19.50;99.90
15355;DHT22;7777;52.254;9.618;2022-08-02T07:56:48;19.60;99.90
15355;DHT22;7777;52.254;9.618;2022-08-02T07:59:14;19.60;99.90
15355;DHT22;7777;52.254;9.618;2022-08-02T08:01:40;19.70;99.90
15355;DHT22;7777;52.254;9.618;2022-08-02T08:04:06;19.80;99.90
15355;DHT22;7777;52.254;9.618;2022-08-02T08:06:32;19.80;99.90
15355;DHT22;7777;52.254;9.618;2022-08-02T08:08:58;19.90;99.90
15355;DHT22;7777;52.254;9.618;2022-08-02T08:11:24;19.90;99.90
15355;DHT22;7777;52.254;9.618;2022-08-02T08:13:53;20.00;99.90
15355;DHT22;7777;52.254;9.618;2022-08-02T08:16:19;20.10;99.90
15355;DHT22;7777;52.254;9.618;2022-08-02T08:18:45;20.20;99.90
15355;DHT22;7777;52.254;9.618;2022-08-02T08:21:11;20.30;99.90
15355;DHT22;7777;52.254;9.618;2022-08-02T08:23:37;20.30;99.90
15355;DHT22;7777;52.254;9.618;2022-08-02T08:26:03;20.40;99.90
15355;DHT22;7777;52.254;9.618;2022-08-02T08:28:29;20.40;99.90
15355;DHT22;7777;52.254;9.618;2022-08-02T08:30:55;20.50;99.90
15355;DHT22;7777;52.254;9.618;2022-08-02T08:33:21;20.60;99.90
15355;DHT22;7777;52.254;9.618;2022-08-02T08:35:46;20.60;99.90
15355;DHT22;7777;52.254;9.618;2022-08-02T08:38:13;20.70;99.90
15355;DHT22;7777;52.254;9.618;2022-08-02T08:40:40;20.70;99.90
15355;DHT22;7777;52.254;9.618;2022-08-02T08:43:06;20.80;99.90
15355;DHT22;7777;52.254;9.618;2022-08-02T08:45:32;20.80;99.90
15355;DHT22;7777;52.254;9.618;2022-08-02T08:48:17;20.90;99.90
15355;DHT22;7777;52.254;9.618;2022-08-02T08:51:00;21.00;99.90
15355;DHT22;7777;52.254;9.618;2022-08-02T08:53:38;21.00;99.90
15355;DHT22;7777;52.254;9.618;2022-08-02T08:56:06;21.10;99.90
15355;DHT22;7777;52.254;9.618;2022-08-02T08:58:33;21.20;99.90
15355;DHT22;7777;52.254;9.618;2022-08-02T09:00:59;21.30;99.90
15355;DHT22;7777;52.254;9.618;2022-08-02T09:03:25;21.30;99.90
15355;DHT22;7777;52.254;9.618;2022-08-02T09:05:50;21.40;99.90
15355;DHT22;7777;52.254;9.618;2022-08-02T09:08:16;21.50;99.90
15355;DHT22;7777;52.254;9.618;2022-08-02T09:10:45;21.50;99.00
15355;DHT22;7777;52.254;9.618;2022-08-02T09:13:24;21.60;98.50
15355;DHT22;7777;52.254;9.618;2022-08-02T09:16:00;21.70;99.20
15355;DHT22;7777;52.254;9.618;2022-08-02T09:18:38;21.70;99.30
15355;DHT22;7777;52.254;9.618;2022-08-02T09:21:07;21.90;99.50
15355;DHT22;7777;52.254;9.618;2022-08-02T09:23:39;21.90;99.60
15355;DHT22;7777;52.254;9.618;2022-08-02T09:26:11;22.00;99.80
15355;DHT22;7777;52.254;9.618;2022-08-02T09:28:40;22.10;98.50
15355;DHT22;7777;52.254;9.618;2022-08-02T09:31:13;22.10;97.50
15355;DHT22;7777;52.254;9.618;2022-08-02T09:33:44;22.20;97.10
15355;DHT22;7777;52.254;9.618;2022-08-02T09:36:15;22.20;97.70
15355;DHT22;7777;52.254;9.618;2022-08-02T09:39:02;22.30;97.60
15355;DHT22;7777;52.254;9.618;2022-08-02T09:41:32;22.40;96.90
15355;DHT22;7777;52.254;9.618;2022-08-02T09:44:00;22.40;96.90
15355;DHT22;7777;52.254;9.618;2022-08-02T09:46:35;22.60;97.30
15355;DHT22;7777;52.254;9.618;2022-08-02T09:49:15;22.70;97.90
15355;DHT22;7777;52.254;9.618;2022-08-02T09:54:16;22.90;98.60
15355;DHT22;7777;52.254;9.618;2022-08-02T09:56:55;23.00;97.20
15355;DHT22;7777;52.254;9.618;2022-08-02T09:59:23;23.20;97.50
15355;DHT22;7777;52.254;9.618;2022-08-02T10:01:53;23.30;96.60
15355;DHT22;7777;52.254;9.618;2022-08-02T10:04:21;23.40;97.50
15355;DHT22;7777;52.254;9.618;2022-08-02T10:06:49;23.50;97.20
15355;DHT22;7777;52.254;9.618;2022-08-02T10:09:16;23.50;96.90
15355;DHT22;7777;52.254;9.618;2022-08-02T10:11:44;23.70;97.20
15355;DHT22;7777;52.254;9.618;2022-08-02T10:14:10;23.70;97.00
15355;DHT22;7777;52.254;9.618;2022-08-02T10:16:41;23.80;96.50
15355;DHT22;7777;52.254;9.618;2022-08-02T10:19:07;23.90;96.20
15355;DHT22;7777;52.254;9.618;2022-08-02T10:24:26;24.10;96.90
15355;DHT22;7777;52.254;9.618;2022-08-02T10:26:53;24.20;94.70
15355;DHT22;7777;52.254;9.618;2022-08-02T10:29:26;24.30;94.90
15355;DHT22;7777;52.254;9.618;2022-08-02T10:32:00;24.30;95.30
15355;DHT22;7777;52.254;9.618;2022-08-02T10:34:48;24.40;95.40
15355;DHT22;7777;52.254;9.618;2022-08-02T10:37:17;24.50;95.40
15355;DHT22;7777;52.254;9.618;2022-08-02T10:39:45;24.70;94.70
15355;DHT22;7777;52.254;9.618;2022-08-02T10:42:12;24.70;94.80
15355;DHT22;7777;52.254;9.618;2022-08-02T10:44:38;24.90;94.10
15355;DHT22;7777;52.254;9.618;2022-08-02T10:49:52;25.10;95.20
15355;DHT22;7777;52.254;9.618;2022-08-02T10:55:11;25.20;93.50
15355;DHT22;7777;52.254;9.618;2022-08-02T10:57:38;25.30;93.70
15355;DHT22;7777;52.254;9.618;2022-08-02T11:00:12;25.40;93.50
15355;DHT22;7777;52.254;9.618;2022-08-02T11:02:50;25.50;94.50
15355;DHT22;7777;52.254;9.618;2022-08-02T11:05:30;25.60;93.70
15355;DHT22;7777;52.254;9.618;2022-08-02T11:07:57;25.80;94.80
15355;DHT22;7777;52.254;9.618;2022-08-02T11:10:30;25.80;93.80
15355;DHT22;7777;52.254;9.618;2022-08-02T11:21:22;26.10;92.30
15355;DHT22;7777;52.254;9.618;2022-08-02T11:23:53;26.10;92.40
15355;DHT22;7777;52.254;9.618;2022-08-02T11:28:59;26.30;91.90
15355;DHT22;7777;52.254;9.618;2022-08-02T11:31:27;26.30;91.50
15355;DHT22;7777;52.254;9.618;2022-08-02T11:33:53;26.40;91.80
15355;DHT22;7777;52.254;9.618;2022-08-02T11:36:19;26.40;92.60
15355;DHT22;7777;52.254;9.618;2022-08-02T11:38:45;26.60;92.90
15355;DHT22;7777;52.254;9.618;2022-08-02T11:41:23;26.70;93.50
15355;DHT22;7777;52.254;9.618;2022-08-02T11:43:55;26.80;93.70
15355;DHT22;7777;52.254;9.618;2022-08-02T11:46:21;27.00;93.50
15355;DHT22;7777;52.254;9.618;2022-08-02T11:48:46;27.10;93.90
15355;DHT22;7777;52.254;9.618;2022-08-02T11:51:14;27.20;94.00
15355;DHT22;7777;52.254;9.618;2022-08-02T11:53:43;27.40;93.20
15355;DHT22;7777;52.254;9.618;2022-08-02T11:56:13;27.40;91.90
15355;DHT22;7777;52.254;9.618;2022-08-02T11:58:40;27.50;92.50
15355;DHT22;7777;52.254;9.618;2022-08-02T12:01:06;27.60;92.80
15355;DHT22;7777;52.254;9.618;2022-08-02T12:03:37;27.60;92.60
15355;DHT22;7777;52.254;9.618;2022-08-02T12:06:04;27.60;91.90
15355;DHT22;7777;52.254;9.618;2022-08-02T12:08:32;27.60;92.40
15355;DHT22;7777;52.254;9.618;2022-08-02T12:11:02;27.70;92.80
15355;DHT22;7777;52.254;9.618;2022-08-02T12:13:41;27.80;92.20
15355;DHT22;7777;52.254;9.618;2022-08-02T12:16:13;27.90;91.50
15355;DHT22;7777;52.254;9.618;2022-08-02T12:18:59;27.90;92.50
15355;DHT22;7777;52.254;9.618;2022-08-02T12:21:43;28.10;93.20
15355;DHT22;7777;52.254;9.618;2022-08-02T12:24:11;28.20;92.40
15355;DHT22;7777;52.254;9.618;2022-08-02T12:26:45;28.20;92.30
15355;DHT22;7777;52.254;9.618;2022-08-02T12:29:12;28.30;92.10
15355;DHT22;7777;52.254;9.618;2022-08-02T12:34:17;28.40;90.60
15355;DHT22;7777;52.254;9.618;2022-08-02T12:37:01;28.30;89.30
15355;DHT22;7777;52.254;9.618;2022-08-02T12:39:42;28.30;88.40
15355;DHT22;7777;52.254;9.618;2022-08-02T12:42:13;28.30;91.50
15355;DHT22;7777;52.254;9.618;2022-08-02T12:44:56;28.30;89.40
15355;DHT22;7777;52.254;9.618;2022-08-02T12:47:24;28.20;89.10
15355;DHT22;7777;52.254;9.618;2022-08-02T12:50:21;28.30;90.80
15355;DHT22;7777;52.254;9.618;2022-08-02T12:53:01;28.30;90.70
15355;DHT22;7777;52.254;9.618;2022-08-02T12:55:50;28.30;91.20
15355;DHT22;7777;52.254;9.618;2022-08-02T12:58:17;28.40;90.90
15355;DHT22;7777;52.254;9.618;2022-08-02T13:00:54;28.30;89.20
15355;DHT22;7777;52.254;9.618;2022-08-02T13:03:22;28.40;91.60
15355;DHT22;7777;52.254;9.618;2022-08-02T13:05:49;28.20;87.40
15355;DHT22;7777;52.254;9.618;2022-08-02T13:08:15;28.20;89.00
15355;DHT22;7777;52.254;9.618;2022-08-02T13:10:41;28.20;91.00
15355;DHT22;7777;52.254;9.618;2022-08-02T13:13:08;28.20;90.40
15355;DHT22;7777;52.254;9.618;2022-08-02T13:15:34;28.30;91.20
15355;DHT22;7777;52.254;9.618;2022-08-02T13:18:00;28.30;91.10
15355;DHT22;7777;52.254;9.618;2022-08-02T13:20:26;28.40;90.80
15355;DHT22;7777;52.254;9.618;2022-08-02T13:22:53;28.40;90.70
15355;DHT22;7777;52.254;9.618;2022-08-02T13:25:20;28.40;90.60
15355;DHT22;7777;52.254;9.618;2022-08-02T13:27:48;28.50;90.40
15355;DHT22;7777;52.254;9.618;2022-08-02T13:30:14;28.60;91.20
15355;DHT22;7777;52.254;9.618;2022-08-02T13:32:40;28.70;91.10
15355;DHT22;7777;52.254;9.618;2022-08-02T13:35:06;28.70;90.70
15355;DHT22;7777;52.254;9.618;2022-08-02T13:37:34;28.80;90.30
15355;DHT22;7777;52.254;9.618;2022-08-02T13:40:00;28.90;88.90
15355;DHT22;7777;52.254;9.618;2022-08-02T13:42:26;28.90;89.40
15355;DHT22;7777;52.254;9.618;2022-08-02T13:44:51;28.90;89.40
15355;DHT22;7777;52.254;9.618;2022-08-02T13:47:17;28.90;86.50
15355;DHT22;7777;52.254;9.618;2022-08-02T13:49:43;28.80;84.20
15355;DHT22;7777;52.254;9.618;2022-08-02T13:52:09;28.80;87.10
15355;DHT22;7777;52.254;9.618;2022-08-02T13:54:35;28.80;84.90
15355;DHT22;7777;52.254;9.618;2022-08-02T13:57:01;28.70;86.60
15355;DHT22;7777;52.254;9.618;2022-08-02T13:59:27;28.60;85.20
15355;DHT22;7777;52.254;9.618;2022-08-02T14:01:53;28.60;86.00
15355;DHT22;7777;52.254;9.618;2022-08-02T14:04:21;28.60;86.40
15355;DHT22;7777;52.254;9.618;2022-08-02T14:06:47;28.60;89.60
15355;DHT22;7777;52.254;9.618;2022-08-02T14:09:13;28.60;88.30
15355;DHT22;7777;52.254;9.618;2022-08-02T14:11:38;28.60;87.10
15355;DHT22;7777;52.254;9.618;2022-08-02T14:14:04;28.70;89.70
15355;DHT22;7777;52.254;9.618;2022-08-02T14:16:30;28.70;89.10
15355;DHT22;7777;52.254;9.618;2022-08-02T14:18:56;28.70;89.80
15355;DHT22;7777;52.254;9.618;2022-08-02T14:21:22;28.70;86.00
15355;DHT22;7777;52.254;9.618;2022-08-02T14:23:48;28.70;88.00
15355;DHT22;7777;52.254;9.618;2022-08-02T14:26:13;28.70;89.10
15355;DHT22;7777;52.254;9.618;2022-08-02T14:28:39;28.70;90.00
15355;DHT22;7777;52.254;9.618;2022-08-02T14:31:05;28.80;87.50
15355;DHT22;7777;52.254;9.618;2022-08-02T14:33:31;28.70;85.60
15355;DHT22;7777;52.254;9.618;2022-08-02T14:35:57;28.70;85.40
15355;DHT22;7777;52.254;9.618;2022-08-02T14:38:23;28.70;88.10
15355;DHT22;7777;52.254;9.618;2022-08-02T14:40:49;28.70;86.90
15355;DHT22;7777;52.254;9.618;2022-08-02T14:43:15;28.70;89.20
15355;DHT22;7777;52.254;9.618;2022-08-02T14:46:00;28.70;84.80
15355;DHT22;7777;52.254;9.618;2022-08-02T14:48:27;28.60;87.10
15355;DHT22;7777;52.254;9.618;2022-08-02T14:50:53;28.60;86.80
15355;DHT22;7777;52.254;9.618;2022-08-02T14:53:19;28.50;84.00
15355;DHT22;7777;52.254;9.618;2022-08-02T14:55:45;28.50;82.10
15355;DHT22;7777;52.254;9.618;2022-08-02T14:58:11;28.40;83.20
15355;DHT22;7777;52.254;9.618;2022-08-02T15:00:37;28.40;85.40
15355;DHT22;7777;52.254;9.618;2022-08-02T15:03:10;28.40;85.90
15355;DHT22;7777;52.254;9.618;2022-08-02T15:05:37;28.40;85.40
15355;DHT22;7777;52.254;9.618;2022-08-02T15:08:04;28.40;86.50
15355;DHT22;7777;52.254;9.618;2022-08-02T15:10:30;28.40;85.10
15355;DHT22;7777;52.254;9.618;2022-08-02T15:12:55;28.30;86.30
15355;DHT22;7777;52.254;9.618;2022-08-02T15:15:21;28.30;86.50
15355;DHT22;7777;52.254;9.618;2022-08-02T15:17:50;28.40;82.70
15355;DHT22;7777;52.254;9.618;2022-08-02T15:20:16;28.30;83.40
15355;DHT22;7777;52.254;9.618;2022-08-02T15:22:42;28.20;84.30
15355;DHT22;7777;52.254;9.618;2022-08-02T15:25:07;28.20;84.40
15355;DHT22;7777;52.254;9.618;2022-08-02T15:27:33;28.20;86.10
15355;DHT22;7777;52.254;9.618;2022-08-02T15:29:59;28.30;84.90
15355;DHT22;7777;52.254;9.618;2022-08-02T15:32:25;28.30;83.60
15355;DHT22;7777;52.254;9.618;2022-08-02T15:34:51;28.20;80.30
15355;DHT22;7777;52.254;9.618;2022-08-02T15:37:17;28.10;80.20
15355;DHT22;7777;52.254;9.618;2022-08-02T15:39:43;28.10;82.10
15355;DHT22;7777;52.254;9.618;2022-08-02T15:42:09;28.00;81.90
15355;DHT22;7777;52.254;9.618;2022-08-02T15:44:35;28.00;80.80
15355;DHT22;7777;52.254;9.618;2022-08-02T15:47:01;28.00;84.30
15355;DHT22;7777;52.254;9.618;2022-08-02T15:49:30;28.00;84.60
15355;DHT22;7777;52.254;9.618;2022-08-02T15:51:56;28.10;83.10
15355;DHT22;7777;52.254;9.618;2022-08-02T15:54:21;28.00;83.20
15355;DHT22;7777;52.254;9.618;2022-08-02T15:56:47;28.00;83.40
15355;DHT22;7777;52.254;9.618;2022-08-02T15:59:13;28.00;84.30
15355;DHT22;7777;52.254;9.618;2022-08-02T16:01:39;27.90;82.80
15355;DHT22;7777;52.254;9.618;2022-08-02T16:04:06;27.90;84.60
15355;DHT22;7777;52.254;9.618;2022-08-02T16:06:32;27.90;83.90
15355;DHT22;7777;52.254;9.618;2022-08-02T16:08:59;27.90;84.20
15355;DHT22;7777;52.254;9.618;2022-08-02T16:11:24;27.80;84.40
15355;DHT22;7777;52.254;9.618;2022-08-02T16:13:51;27.80;82.40
15355;DHT22;7777;52.254;9.618;2022-08-02T16:16:19;27.80;82.70
15355;DHT22;7777;52.254;9.618;2022-08-02T16:18:46;27.70;83.70
15355;DHT22;7777;52.254;9.618;2022-08-02T16:21:12;27.70;81.90
15355;DHT22;7777;52.254;9.618;2022-08-02T16:23:38;27.60;83.70
15355;DHT22;7777;52.254;9.618;2022-08-02T16:26:03;27.60;83.40
15355;DHT22;7777;52.254;9.618;2022-08-02T16:28:29;27.60;84.50
15355;DHT22;7777;52.254;9.618;2022-08-02T16:30:55;27.50;84.40
15355;DHT22;7777;52.254;9.618;2022-08-02T16:33:20;27.60;83.90
15355;DHT22;7777;52.254;9.618;2022-08-02T16:35:46;27.60;85.70
15355;DHT22;7777;52.254;9.618;2022-08-02T16:38:15;27.60;85.40